createdAt,value
2019-05-25T00:01:30.495Z,21.20
2019-05-25T00:04:00.224Z,21.00
2019-05-25T00:06:29.921Z,21.00
2019-05-25T00:08:59.686Z,21.20
2019-05-25T00:11:29.498Z,21.10
2019-05-25T00:13:59.209Z,20.90
2019-05-25T00:16:29.035Z,20.90
2019-05-25T00:18:58.809Z,21.10
2019-05-25T00:21:28.497Z,21.10
2019-05-25T00:24:11.203Z,21.10
2019-05-25T00:26:29.754Z,20.90
2019-05-25T00:28:59.500Z,21.00
2019-05-25T00:31:30.187Z,20.90
2019-05-25T00:33:59.961Z,21.10
2019-05-25T00:36:29.673Z,21.10
2019-05-25T00:38:59.596Z,21.10
2019-05-25T00:41:29.293Z,21.10
2019-05-25T00:43:58.965Z,21.20
2019-05-25T00:46:28.714Z,21.10
2019-05-25T00:48:58.645Z,21.10
2019-05-25T00:51:28.398Z,21.00
2019-05-25T00:53:58.157Z,20.90
2019-05-25T00:56:28.458Z,21.10
2019-05-25T00:58:58.186Z,21.10
2019-05-25T01:01:27.896Z,21.00
2019-05-25T01:03:57.604Z,21.00
2019-05-25T01:06:27.316Z,21.10
2019-05-25T01:08:57.090Z,21.10
2019-05-25T01:11:26.838Z,21.00
2019-05-25T01:13:56.483Z,20.90
2019-05-25T01:16:26.165Z,20.90
2019-05-25T01:18:55.975Z,21.10
2019-05-25T01:21:25.690Z,21.00
2019-05-25T01:23:55.358Z,21.10
2019-05-25T01:26:25.019Z,21.10
2019-05-25T01:28:56.076Z,21.10
2019-05-25T01:31:25.747Z,21.10
2019-05-25T01:33:55.566Z,21.00
2019-05-25T01:36:25.582Z,21.10
2019-05-25T01:38:55.386Z,21.00
2019-05-25T01:41:25.101Z,21.10
2019-05-25T01:43:54.810Z,20.90
2019-05-25T01:46:24.642Z,20.90
2019-05-25T01:48:54.431Z,20.90
2019-05-25T01:51:24.099Z,20.90
2019-05-25T01:53:54.639Z,21.10
2019-05-25T01:56:24.469Z,21.10
2019-05-25T01:58:54.256Z,21.00
2019-05-25T02:01:23.933Z,21.10
2019-05-25T02:03:53.716Z,20.90
2019-05-25T02:06:23.533Z,20.90
2019-05-25T02:08:53.309Z,21.00
2019-05-25T02:11:23.049Z,21.00
2019-05-25T02:13:52.759Z,20.90
2019-05-25T02:16:22.471Z,21.00
2019-05-25T02:18:52.287Z,21.10
2019-05-25T02:21:21.951Z,21.00
2019-05-25T02:23:51.818Z,20.90
2019-05-25T02:26:22.002Z,20.90
2019-05-25T02:28:51.740Z,21.00
2019-05-25T02:31:21.448Z,21.00
2019-05-25T02:33:51.155Z,21.00
2019-05-25T02:36:21.490Z,21.10
2019-05-25T02:38:51.499Z,20.90
2019-05-25T02:41:21.212Z,21.10
2019-05-25T02:43:50.918Z,20.90
2019-05-25T02:46:20.631Z,21.10
2019-05-25T02:48:50.443Z,20.90
2019-05-25T02:51:20.164Z,21.00
2019-05-25T02:53:50.204Z,20.80
2019-05-25T02:56:19.953Z,21.00
2019-05-25T02:58:49.612Z,20.80
2019-05-25T03:01:19.512Z,21.00
2019-05-25T03:03:49.212Z,21.00
2019-05-25T03:06:18.925Z,20.90
2019-05-25T03:08:48.735Z,20.90
2019-05-25T03:11:18.551Z,20.80
2019-05-25T03:13:48.241Z,20.90
2019-05-25T03:16:17.999Z,21.00
2019-05-25T03:18:47.780Z,21.00
2019-05-25T03:21:17.590Z,20.90
2019-05-25T03:23:47.372Z,20.90
2019-05-25T03:26:17.255Z,20.90
2019-05-25T03:28:47.036Z,20.80
2019-05-25T03:31:16.740Z,20.80
2019-05-25T03:33:46.556Z,21.00
2019-05-25T03:36:16.335Z,20.80
2019-05-25T03:38:46.074Z,21.00
2019-05-25T03:41:15.729Z,21.00
2019-05-25T03:43:45.391Z,20.90
2019-05-25T03:46:15.098Z,21.00
2019-05-25T03:48:44.870Z,20.90
2019-05-25T03:51:14.582Z,21.00
2019-05-25T03:53:44.436Z,21.00
2019-05-25T03:56:14.203Z,20.80
2019-05-25T03:58:44.064Z,20.90
2019-05-25T04:01:13.740Z,20.80
2019-05-25T04:03:43.485Z,21.00
2019-05-25T04:06:13.192Z,20.90
2019-05-25T04:08:43.002Z,21.00
2019-05-25T04:11:12.634Z,20.90
2019-05-25T04:13:43.183Z,21.00
2019-05-25T04:16:12.951Z,20.80
2019-05-25T04:18:42.696Z,20.80
2019-05-25T04:21:12.578Z,20.80
2019-05-25T04:23:42.336Z,20.80
2019-05-25T04:26:22.014Z,21.00
2019-05-25T04:28:43.466Z,20.80
2019-05-25T04:31:13.369Z,21.00
2019-05-25T04:33:43.077Z,21.00
2019-05-25T04:36:12.779Z,20.80
2019-05-25T04:38:42.890Z,20.80
2019-05-25T04:41:12.815Z,20.80
2019-05-25T04:43:42.535Z,20.90
2019-05-25T04:46:12.351Z,21.00
2019-05-25T04:48:42.151Z,21.00
2019-05-25T04:51:12.000Z,20.90
2019-05-25T04:53:41.887Z,21.00
2019-05-25T04:56:11.691Z,20.90
2019-05-25T04:58:41.552Z,21.00
2019-05-25T05:01:11.422Z,20.80
2019-05-25T05:03:41.128Z,20.90
2019-05-25T05:06:10.839Z,20.80
2019-05-25T05:08:40.651Z,20.90
2019-05-25T05:11:10.464Z,20.90
2019-05-25T05:13:40.275Z,20.80
2019-05-25T05:16:09.953Z,20.80
2019-05-25T05:18:39.727Z,20.90
2019-05-25T05:21:09.511Z,20.90
2019-05-25T05:23:39.219Z,20.80
2019-05-25T05:26:08.926Z,20.80
2019-05-25T05:28:38.661Z,20.80
2019-05-25T05:31:22.752Z,20.80
2019-05-25T05:33:39.754Z,20.80
2019-05-25T05:36:09.439Z,20.80
2019-05-25T05:38:39.536Z,20.90
2019-05-25T05:41:09.561Z,20.80
2019-05-25T05:43:39.461Z,20.80
2019-05-25T05:46:09.135Z,20.90
2019-05-25T05:48:39.362Z,20.90
2019-05-25T05:51:08.997Z,20.90
2019-05-25T05:53:38.639Z,20.90
2019-05-25T05:56:09.514Z,20.90
2019-05-25T05:58:39.356Z,20.90
2019-05-25T06:01:09.062Z,20.90
2019-05-25T06:03:38.713Z,20.90
2019-05-25T06:06:08.582Z,20.80
2019-05-25T06:08:38.415Z,20.90
2019-05-25T06:11:08.068Z,20.90
2019-05-25T06:13:40.599Z,20.90
2019-05-25T06:16:10.398Z,20.90
2019-05-25T06:18:41.083Z,20.90
2019-05-25T06:21:10.762Z,20.90
2019-05-25T06:23:40.504Z,20.90
2019-05-25T06:26:10.362Z,20.90
2019-05-25T06:28:40.275Z,21.00
2019-05-25T06:31:09.955Z,20.90
2019-05-25T06:33:59.697Z,20.90
2019-05-25T06:36:29.461Z,20.90
2019-05-25T06:38:59.216Z,20.90
2019-05-25T06:41:29.003Z,20.90
2019-05-25T06:43:58.767Z,20.90
2019-05-25T06:46:28.490Z,21.00
2019-05-25T06:48:58.306Z,20.90
2019-05-25T06:51:28.019Z,20.90
2019-05-25T06:53:57.733Z,20.90
2019-05-25T06:56:27.447Z,21.00
2019-05-25T06:58:57.449Z,20.90
2019-05-25T07:01:27.211Z,20.90
2019-05-25T07:03:56.915Z,20.90
2019-05-25T07:06:26.890Z,20.90
2019-05-25T07:08:56.560Z,20.90
2019-05-25T07:11:26.345Z,21.00
2019-05-25T07:13:56.046Z,21.00
2019-05-25T07:16:25.959Z,20.90
2019-05-25T07:18:55.653Z,20.90
2019-05-25T07:21:25.407Z,20.90
2019-05-25T07:23:55.524Z,20.90
2019-05-25T07:26:25.235Z,20.90
2019-05-25T07:28:55.050Z,20.90
2019-05-25T07:31:24.772Z,20.90
2019-05-25T07:33:54.659Z,20.90
2019-05-25T07:36:25.279Z,20.90
2019-05-25T07:38:55.101Z,20.90
2019-05-25T07:41:24.906Z,20.90
2019-05-25T07:43:55.862Z,21.00
2019-05-25T07:46:25.654Z,20.90
2019-05-25T07:48:55.443Z,20.90
2019-05-25T07:51:25.186Z,21.00
2019-05-25T07:53:54.891Z,21.00
2019-05-25T07:56:24.619Z,21.00
2019-05-25T07:58:54.370Z,21.00
2019-05-25T08:01:24.259Z,20.90
2019-05-25T08:03:54.080Z,20.90
2019-05-25T08:06:23.731Z,20.90
2019-05-25T08:08:53.559Z,20.90
2019-05-25T08:11:23.280Z,21.00
2019-05-25T08:13:53.048Z,20.90
2019-05-25T08:16:22.859Z,20.90
2019-05-25T08:18:52.576Z,20.90
2019-05-25T08:21:22.313Z,21.00
2019-05-25T08:23:52.078Z,20.90
2019-05-25T08:26:21.934Z,21.00
2019-05-25T08:28:54.580Z,20.90
2019-05-25T08:31:24.873Z,21.00
2019-05-25T08:33:55.273Z,21.00
2019-05-25T08:36:25.577Z,21.00
2019-05-25T08:38:55.948Z,21.00
2019-05-25T08:41:26.446Z,21.00
2019-05-25T08:43:58.711Z,20.90
2019-05-25T08:46:28.341Z,21.00
2019-05-25T08:48:58.134Z,21.00
2019-05-25T08:51:27.963Z,21.00
2019-05-25T08:53:57.623Z,21.00
2019-05-25T08:56:27.385Z,21.00
2019-05-25T08:58:57.179Z,21.00
2019-05-25T09:01:26.831Z,21.00
2019-05-25T09:03:56.707Z,21.00
2019-05-25T09:06:26.582Z,21.00
2019-05-25T09:08:56.321Z,20.90
2019-05-25T09:11:26.038Z,21.00
2019-05-25T09:13:55.716Z,21.00
2019-05-25T09:16:25.353Z,20.90
2019-05-25T09:18:55.165Z,21.00
2019-05-25T09:21:24.808Z,21.00
2019-05-25T09:23:54.597Z,21.00
2019-05-25T09:26:24.400Z,21.00
2019-05-25T09:29:04.137Z,21.00
2019-05-25T09:31:25.678Z,21.00
2019-05-25T09:33:55.337Z,21.00
2019-05-25T09:36:38.024Z,20.90
2019-05-25T09:39:08.550Z,21.00
2019-05-25T09:41:57.376Z,21.00
2019-05-25T09:44:33.096Z,21.00
2019-05-25T09:47:10.208Z,21.00
2019-05-25T09:49:40.031Z,21.00
2019-05-25T09:52:09.798Z,21.00
2019-05-25T09:54:39.906Z,20.90
2019-05-25T09:57:09.524Z,21.00
2019-05-25T09:59:39.276Z,21.00
2019-05-25T10:02:09.085Z,21.00
2019-05-25T10:04:38.754Z,21.00
2019-05-25T10:07:08.399Z,21.10
2019-05-25T10:09:43.571Z,21.00
2019-05-25T10:16:46.489Z,21.00
2019-05-25T10:19:22.869Z,21.10
2019-05-25T10:22:19.993Z,21.00
2019-05-25T10:25:18.291Z,21.00
2019-05-25T10:28:50.909Z,21.00
2019-05-25T10:32:04.215Z,21.00
2019-05-25T10:34:51.341Z,21.10
2019-05-25T10:37:21.116Z,21.00
2019-05-25T10:39:52.513Z,21.00
2019-05-25T10:42:22.582Z,21.00
2019-05-25T10:44:52.344Z,21.10
2019-05-25T10:47:22.068Z,21.00
2019-05-25T10:49:51.795Z,21.00
2019-05-25T10:52:21.529Z,21.00
2019-05-25T10:54:52.184Z,21.10
2019-05-25T10:57:21.962Z,21.10
2019-05-25T10:59:53.281Z,21.10
2019-05-25T11:02:23.247Z,21.10
2019-05-25T11:04:53.075Z,21.10
2019-05-25T11:07:22.812Z,21.10
2019-05-25T11:10:12.744Z,21.10
2019-05-25T11:12:42.634Z,21.10
2019-05-25T11:15:13.899Z,21.10
2019-05-25T11:17:43.679Z,21.10
2019-05-25T11:20:13.369Z,21.10
2019-05-25T11:22:47.437Z,21.10
2019-05-25T11:25:17.198Z,21.10
2019-05-25T11:27:46.958Z,21.10
2019-05-25T11:30:16.788Z,21.10
2019-05-25T11:32:46.687Z,21.10
2019-05-25T11:35:17.227Z,21.10
2019-05-25T11:37:49.097Z,21.10
2019-05-25T11:40:19.788Z,21.10
2019-05-25T11:42:49.594Z,21.10
2019-05-25T11:45:19.317Z,21.10
2019-05-25T11:47:49.096Z,21.20
2019-05-25T11:50:18.773Z,21.20
2019-05-25T11:52:48.809Z,21.20
2019-05-25T11:55:18.800Z,21.20
2019-05-25T11:57:48.608Z,21.20
2019-05-25T12:00:24.865Z,21.20
2019-05-25T12:02:49.760Z,21.20
2019-05-25T12:05:19.514Z,21.20
2019-05-25T12:07:52.238Z,21.20
2019-05-25T12:10:24.977Z,21.20
2019-05-25T12:12:58.378Z,21.20
2019-05-25T12:15:29.670Z,21.20
2019-05-25T12:17:59.514Z,21.20
2019-05-25T12:20:29.297Z,21.20
2019-05-25T12:23:00.045Z,21.20
2019-05-25T12:25:29.688Z,21.20
2019-05-25T12:27:59.426Z,21.20
2019-05-25T12:30:40.214Z,21.20
2019-05-25T12:33:00.511Z,21.20
2019-05-25T12:35:30.270Z,21.20
2019-05-25T12:38:00.028Z,21.20
2019-05-25T12:40:29.691Z,21.20
2019-05-25T12:42:59.400Z,21.20
2019-05-25T12:45:29.227Z,21.20
2019-05-25T12:48:01.226Z,21.20
2019-05-25T12:50:30.936Z,21.20
2019-05-25T12:53:03.376Z,21.30
2019-05-25T12:55:35.787Z,21.20
2019-05-25T12:58:08.363Z,21.20
2019-05-25T13:00:53.440Z,21.20
2019-05-25T13:03:13.948Z,21.30
2019-05-25T13:05:43.697Z,21.30
2019-05-25T13:08:15.481Z,21.30
2019-05-25T13:10:45.183Z,21.30
2019-05-25T13:13:15.073Z,21.30
2019-05-25T13:15:46.388Z,21.30
2019-05-25T13:18:18.638Z,21.20
2019-05-25T13:20:48.326Z,21.30
2019-05-25T13:23:18.044Z,21.30
2019-05-25T13:25:47.726Z,21.30
2019-05-25T13:28:17.594Z,21.30
2019-05-25T13:30:47.315Z,21.30
2019-05-25T13:33:20.273Z,21.30
2019-05-25T13:35:50.015Z,21.30
2019-05-25T13:38:19.784Z,21.30
2019-05-25T13:40:49.569Z,21.30
2019-05-25T13:43:22.097Z,21.30
2019-05-25T13:45:51.991Z,21.30
2019-05-25T13:48:22.854Z,21.30
2019-05-25T13:50:54.753Z,21.30
2019-05-25T13:53:26.380Z,21.30
2019-05-25T13:55:57.505Z,21.30
2019-05-25T13:58:27.254Z,21.30
2019-05-25T14:00:56.961Z,21.30
2019-05-25T14:03:26.659Z,21.30
2019-05-25T14:05:56.383Z,21.30
2019-05-25T14:08:26.131Z,21.30
2019-05-25T14:10:57.082Z,21.30
2019-05-25T14:13:27.834Z,21.30
2019-05-25T14:16:06.517Z,21.30
2019-05-25T14:18:29.058Z,21.30
2019-05-25T14:20:58.737Z,21.30
2019-05-25T14:23:28.379Z,21.30
2019-05-25T14:26:01.182Z,21.30
2019-05-25T14:28:30.903Z,21.30
2019-05-25T14:31:00.552Z,21.30
2019-05-25T14:33:30.207Z,21.30
2019-05-25T14:35:59.849Z,21.30
2019-05-25T14:38:29.539Z,21.30
2019-05-25T14:40:59.231Z,21.30
2019-05-25T14:43:28.995Z,21.30
2019-05-25T14:45:58.705Z,21.30
2019-05-25T14:48:28.419Z,21.30
2019-05-25T14:50:58.071Z,21.30
2019-05-25T14:53:27.716Z,21.30
2019-05-25T14:55:57.573Z,21.30
2019-05-25T14:58:27.355Z,21.30
2019-05-25T15:00:57.066Z,21.40
2019-05-25T15:03:45.763Z,21.40
2019-05-25T15:06:15.513Z,21.40
2019-05-25T15:08:45.272Z,21.40
2019-05-25T15:11:14.941Z,21.40
2019-05-25T15:13:44.598Z,21.40
2019-05-25T15:16:14.337Z,21.40
2019-05-25T15:18:44.069Z,21.40
2019-05-25T15:21:13.771Z,21.40
2019-05-25T15:23:43.487Z,21.40
2019-05-25T15:26:13.140Z,21.40
2019-05-25T15:28:42.887Z,21.40
2019-05-25T15:31:12.685Z,21.40
2019-05-25T15:33:42.341Z,21.40
2019-05-25T15:36:11.979Z,21.40
2019-05-25T15:38:41.723Z,21.40
2019-05-25T15:41:11.665Z,21.40
2019-05-25T15:43:41.323Z,21.40
2019-05-25T15:46:11.230Z,21.40
2019-05-25T15:48:41.725Z,21.40
2019-05-25T15:51:30.490Z,21.40
2019-05-25T15:54:00.227Z,21.40
2019-05-25T15:56:29.955Z,21.40
2019-05-25T15:58:59.716Z,21.40
2019-05-25T16:01:29.353Z,21.50
2019-05-25T16:03:58.995Z,21.40
2019-05-25T16:06:28.790Z,21.40
2019-05-25T16:08:58.531Z,21.50
2019-05-25T16:11:28.194Z,21.50
2019-05-25T16:13:57.906Z,21.40
2019-05-25T16:16:30.698Z,21.40
2019-05-25T16:19:00.473Z,21.40
2019-05-25T16:25:12.898Z,21.50
2019-05-25T16:27:44.283Z,21.50
2019-05-25T16:30:13.940Z,21.50
2019-05-25T16:35:15.235Z,21.50
2019-05-25T16:37:52.526Z,21.50
2019-05-25T16:40:22.420Z,21.50
2019-05-25T16:43:11.257Z,21.50
2019-05-25T16:45:41.011Z,21.50
2019-05-25T16:48:12.350Z,21.50
2019-05-25T16:50:42.486Z,21.50
2019-05-25T16:53:12.146Z,21.50
2019-05-25T16:55:41.813Z,21.50
2019-05-25T16:58:11.515Z,21.50
2019-05-25T17:00:41.151Z,21.50
2019-05-25T17:03:26.973Z,21.50
2019-05-25T17:05:42.129Z,21.50
2019-05-25T17:08:11.862Z,21.50
2019-05-25T17:10:41.508Z,21.50
2019-05-25T17:13:11.178Z,21.50
2019-05-25T17:15:40.833Z,21.50
2019-05-25T17:18:10.562Z,21.50
2019-05-25T17:20:43.364Z,21.50
2019-05-25T17:23:13.016Z,21.50
2019-05-25T17:25:42.647Z,21.50
2019-05-25T17:28:12.362Z,21.50
2019-05-25T17:30:46.320Z,21.50
2019-05-25T17:33:19.261Z,21.50
2019-05-25T17:35:49.004Z,21.50
2019-05-25T17:38:18.890Z,21.50
2019-05-25T17:40:48.611Z,21.50
2019-05-25T17:43:18.296Z,21.50
2019-05-25T17:45:54.446Z,21.50
2019-05-25T17:48:25.437Z,21.50
2019-05-25T17:50:56.203Z,21.50
2019-05-25T17:53:25.947Z,21.50
2019-05-25T17:55:55.631Z,21.50
2019-05-25T17:58:25.446Z,21.50
2019-05-25T18:00:55.156Z,21.50
2019-05-25T18:03:25.755Z,21.50
2019-05-25T18:06:14.901Z,21.50
2019-05-25T18:08:45.876Z,21.50
2019-05-25T18:11:15.506Z,21.50
2019-05-25T18:13:45.177Z,21.50
2019-05-25T18:16:14.834Z,21.50
2019-05-25T18:18:44.597Z,21.50
2019-05-25T18:21:22.551Z,21.50
2019-05-25T18:23:52.214Z,21.50
2019-05-25T18:26:21.961Z,21.50
2019-05-25T18:28:51.819Z,21.50
2019-05-25T18:31:21.555Z,21.50
2019-05-25T18:33:51.196Z,21.50
2019-05-25T18:36:20.876Z,21.50
2019-05-25T18:38:50.598Z,21.50
2019-05-25T18:41:20.291Z,21.50
2019-05-25T18:43:50.297Z,21.50
2019-05-25T18:46:20.108Z,21.50
2019-05-25T18:48:49.911Z,21.50
2019-05-25T18:51:19.710Z,21.50
2019-05-25T18:53:49.476Z,21.50
2019-05-25T18:56:19.144Z,21.50
2019-05-25T18:58:48.978Z,21.40
2019-05-25T19:01:25.781Z,21.40
2019-05-25T19:03:55.462Z,21.40
2019-05-25T19:06:25.230Z,21.40
2019-05-25T19:08:57.108Z,21.40
2019-05-25T19:11:26.767Z,21.40
2019-05-25T19:13:56.571Z,21.40
2019-05-25T19:16:26.244Z,21.40
2019-05-25T19:18:55.929Z,21.40
2019-05-25T19:21:25.600Z,21.40
2019-05-25T19:23:55.281Z,21.40
2019-05-25T19:26:24.943Z,21.40
2019-05-25T19:28:54.666Z,21.40
2019-05-25T19:31:24.432Z,21.40
2019-05-25T19:33:54.335Z,21.40
2019-05-25T19:36:24.006Z,21.40
2019-05-25T19:38:53.695Z,21.40
2019-05-25T19:41:23.541Z,21.40
2019-05-25T19:43:53.350Z,21.40
2019-05-25T19:46:23.024Z,21.40
2019-05-25T19:48:52.795Z,21.40
2019-05-25T19:51:22.467Z,21.40
2019-05-25T19:53:52.139Z,21.40
2019-05-25T19:56:21.825Z,21.40
2019-05-25T19:58:51.580Z,21.40
2019-05-25T20:01:21.339Z,21.50
2019-05-25T20:03:51.084Z,21.40
2019-05-25T20:06:20.760Z,21.40
2019-05-25T20:08:50.614Z,21.50
2019-05-25T20:11:20.358Z,21.50
2019-05-25T20:13:50.100Z,21.50
2019-05-25T20:16:19.804Z,21.50
2019-05-25T20:18:49.479Z,21.50
2019-05-25T20:21:19.150Z,21.50
2019-05-25T20:23:48.843Z,21.50
2019-05-25T20:26:18.495Z,21.50
2019-05-25T20:28:50.677Z,21.50
2019-05-25T20:31:19.568Z,21.50
2019-05-25T20:33:49.259Z,21.50
2019-05-25T20:36:18.951Z,21.50
2019-05-25T20:38:48.681Z,21.50
2019-05-25T20:41:18.396Z,21.50
2019-05-25T20:43:48.052Z,21.50
2019-05-25T20:46:17.845Z,21.50
2019-05-25T20:48:47.606Z,21.50
2019-05-25T20:51:17.228Z,21.50
2019-05-25T20:53:46.916Z,21.50
2019-05-25T20:56:16.674Z,21.50
2019-05-25T20:58:46.371Z,21.50
2019-05-25T21:01:16.016Z,21.50
2019-05-25T21:03:45.654Z,21.50
2019-05-25T21:06:15.373Z,21.40
2019-05-25T21:08:45.966Z,21.50
2019-05-25T21:11:15.703Z,21.40
2019-05-25T21:13:45.351Z,21.40
2019-05-25T21:16:14.978Z,21.40
2019-05-25T21:18:44.731Z,21.40
2019-05-25T21:21:14.671Z,21.50
2019-05-25T21:23:44.316Z,21.40
2019-05-25T21:26:13.966Z,21.40
2019-05-25T21:28:43.710Z,21.40
2019-05-25T21:31:13.382Z,21.50
2019-05-25T21:33:43.051Z,21.40
2019-05-25T21:36:12.704Z,21.40
2019-05-25T21:38:42.491Z,21.40
2019-05-25T21:41:12.503Z,21.40
2019-05-25T21:43:42.143Z,21.40
2019-05-25T21:46:11.807Z,21.40
2019-05-25T21:48:41.529Z,21.40
2019-05-25T21:51:11.202Z,21.40
2019-05-25T21:53:40.848Z,21.40
2019-05-25T21:56:10.501Z,21.40
2019-05-25T21:58:40.216Z,21.40
2019-05-25T22:01:09.991Z,21.40
2019-05-25T22:03:39.685Z,21.40
2019-05-25T22:06:23.135Z,21.40
2019-05-25T22:08:40.985Z,21.40
2019-05-25T22:11:10.706Z,21.40
2019-05-25T22:13:40.472Z,21.40
2019-05-25T22:16:10.126Z,21.40
2019-05-25T22:18:39.857Z,21.40
2019-05-25T22:21:09.506Z,21.40
2019-05-25T22:23:39.190Z,21.40
2019-05-25T22:26:08.851Z,21.40
2019-05-25T22:28:44.779Z,21.40
2019-05-25T22:31:09.902Z,21.40
2019-05-25T22:33:39.573Z,21.40
2019-05-25T22:36:09.260Z,21.40
2019-05-25T22:38:38.970Z,21.40
2019-05-25T22:41:08.655Z,21.40
2019-05-25T22:43:38.314Z,21.40
2019-05-25T22:46:07.994Z,21.40
2019-05-25T22:48:37.745Z,21.40
2019-05-25T22:51:07.380Z,21.40
2019-05-25T22:53:37.009Z,21.40
2019-05-25T22:56:06.665Z,21.40
2019-05-25T22:58:36.330Z,21.40
2019-05-25T23:01:06.197Z,21.40
2019-05-25T23:03:35.828Z,21.40
2019-05-25T23:06:05.608Z,21.40
2019-05-25T23:08:35.266Z,21.40
2019-05-25T23:11:05.674Z,21.40
2019-05-25T23:13:35.352Z,21.40
2019-05-25T23:16:05.021Z,21.30
2019-05-25T23:18:34.775Z,21.40
2019-05-25T23:21:07.122Z,21.30
2019-05-25T23:23:36.860Z,21.30
2019-05-25T23:26:06.494Z,21.30
2019-05-25T23:28:36.239Z,21.30
2019-05-25T23:31:06.019Z,21.30
2019-05-25T23:33:35.710Z,21.30
2019-05-25T23:36:05.357Z,21.30
2019-05-25T23:38:35.064Z,21.30
2019-05-25T23:41:04.723Z,21.30
2019-05-25T23:43:34.440Z,21.30
2019-05-25T23:46:04.140Z,21.30
2019-05-25T23:48:33.856Z,21.30
2019-05-25T23:51:03.561Z,21.30
2019-05-25T23:53:33.320Z,21.30
2019-05-25T23:56:03.041Z,21.40
2019-05-25T23:58:34.795Z,21.30
